createdAt,value
2018-09-26T00:00:10.763Z,56.97
2018-09-26T00:01:10.708Z,56.93
2018-09-26T00:02:10.653Z,56.93
2018-09-26T00:03:10.898Z,56.89
2018-09-26T00:04:11.190Z,57.05
2018-09-26T00:05:10.929Z,57.04
2018-09-26T00:06:10.833Z,56.89
2018-09-26T00:07:10.828Z,56.78
2018-09-26T00:08:10.641Z,57.04
2018-09-26T00:09:10.853Z,57
2018-09-26T00:10:10.821Z,57.12
2018-09-26T00:11:10.848Z,56.71
2018-09-26T00:12:10.957Z,57.38
2018-09-26T00:13:10.803Z,56.9
2018-09-26T00:14:10.689Z,56.88
2018-09-26T00:15:10.740Z,56.94
2018-09-26T00:16:10.790Z,56.59
2018-09-26T00:17:10.801Z,56.68
2018-09-26T00:18:11.055Z,57.09
2018-09-26T00:19:10.835Z,57.09
2018-09-26T00:20:10.629Z,57.22
2018-09-26T00:21:10.825Z,57.06
2018-09-26T00:22:10.876Z,57.32
2018-09-26T00:23:10.749Z,57.06
2018-09-26T00:24:10.752Z,56.91
2018-09-26T00:25:10.629Z,57.24
2018-09-26T00:26:10.837Z,57.14
2018-09-26T00:27:10.947Z,57.17
2018-09-26T00:28:10.690Z,57.26
2018-09-26T00:29:10.897Z,57.04
2018-09-26T00:30:10.980Z,57.25
2018-09-26T00:31:10.935Z,57
2018-09-26T00:32:10.907Z,57.43
2018-09-26T00:33:10.829Z,57.39
2018-09-26T00:34:10.647Z,56.95
2018-09-26T00:35:11.178Z,56.74
2018-09-26T00:36:11.985Z,56.95
2018-09-26T00:37:10.770Z,56.81
2018-09-26T00:38:10.982Z,56.85
2018-09-26T00:39:10.673Z,56.73
2018-09-26T00:40:10.792Z,57.08
2018-09-26T00:41:10.928Z,57.16
2018-09-26T00:42:11.085Z,56.78
2018-09-26T00:43:10.763Z,56.78
2018-09-26T00:44:10.749Z,57.15
2018-09-26T00:45:10.742Z,57.27
2018-09-26T00:46:10.760Z,57
2018-09-26T00:47:10.859Z,56.83
2018-09-26T00:48:10.745Z,57.05
2018-09-26T00:49:10.600Z,56.78
2018-09-26T00:50:10.596Z,57.38
2018-09-26T00:51:10.638Z,57.29
2018-09-26T00:52:10.670Z,57.18
2018-09-26T00:53:10.752Z,57.36
2018-09-26T00:54:10.774Z,57.31
2018-09-26T00:55:10.735Z,57.21
2018-09-26T00:56:10.809Z,57.77
2018-09-26T00:57:10.773Z,57.89
2018-09-26T00:58:10.889Z,57.49
2018-09-26T00:59:10.566Z,57.26
2018-09-26T01:00:10.797Z,57.42
2018-09-26T01:01:10.621Z,57.33
2018-09-26T01:02:10.603Z,57.76
2018-09-26T01:03:10.745Z,57.63
2018-09-26T01:04:10.604Z,57.75
2018-09-26T01:05:10.664Z,57.79
2018-09-26T01:06:11.042Z,58.1
2018-09-26T01:07:10.847Z,57.65
2018-09-26T01:08:10.608Z,57.84
2018-09-26T01:09:10.759Z,57.63
2018-09-26T01:10:10.679Z,57.74
2018-09-26T01:11:10.708Z,57.55
2018-09-26T01:12:10.823Z,57.59
2018-09-26T01:13:10.719Z,57.31
2018-09-26T01:14:10.785Z,57.52
2018-09-26T01:15:10.805Z,57.61
2018-09-26T01:16:10.567Z,57.54
2018-09-26T01:17:10.623Z,57.67
2018-09-26T01:18:10.552Z,57.26
2018-09-26T01:19:10.831Z,57.65
2018-09-26T01:20:10.841Z,57.49
2018-09-26T01:21:10.723Z,57.31
2018-09-26T01:22:10.742Z,57.29
2018-09-26T01:23:10.728Z,57.3
2018-09-26T01:24:10.891Z,57.41
2018-09-26T01:25:10.744Z,57.26
2018-09-26T01:26:10.580Z,57.36
2018-09-26T01:27:10.745Z,57.07
2018-09-26T01:28:10.580Z,57.29
2018-09-26T01:29:10.697Z,57.3
2018-09-26T01:30:10.574Z,57.22
2018-09-26T01:31:10.786Z,57.41
2018-09-26T01:32:10.692Z,57.25
2018-09-26T01:33:10.732Z,58.15
2018-09-26T01:34:10.722Z,57.45
2018-09-26T01:35:10.802Z,57.25
2018-09-26T01:36:10.748Z,57.51
2018-09-26T01:37:10.689Z,57.57
2018-09-26T01:38:10.746Z,57.35
2018-09-26T01:39:10.621Z,57.28
2018-09-26T01:40:10.644Z,57.43
2018-09-26T01:41:10.552Z,57.5
2018-09-26T01:42:10.750Z,57.63
2018-09-26T01:43:10.584Z,57.53
2018-09-26T01:44:10.805Z,57.24
2018-09-26T01:45:10.743Z,57.38
2018-09-26T01:46:10.674Z,57.58
2018-09-26T01:47:10.722Z,57.23
2018-09-26T01:48:10.997Z,57.33
2018-09-26T01:49:10.561Z,57.49
2018-09-26T01:50:10.803Z,57.78
2018-09-26T01:51:10.887Z,57.9
2018-09-26T01:52:10.985Z,57.77
2018-09-26T01:53:10.596Z,57.85
2018-09-26T01:54:10.540Z,58.04
2018-09-26T01:55:10.681Z,57.51
2018-09-26T01:56:10.823Z,57.73
2018-09-26T01:57:11.038Z,57.66
2018-09-26T01:58:10.562Z,57.66
2018-09-26T01:59:10.729Z,58.08
2018-09-26T02:00:10.474Z,57.77
2018-09-26T02:01:10.661Z,57.86
2018-09-26T02:02:10.650Z,58.29
2018-09-26T02:03:10.619Z,58.4
2018-09-26T02:04:10.489Z,58.34
2018-09-26T02:05:10.550Z,58.2
2018-09-26T02:06:10.515Z,58.03
2018-09-26T02:07:10.513Z,58.09
2018-09-26T02:08:10.663Z,58.07
2018-09-26T02:09:10.672Z,58.23
2018-09-26T02:10:10.647Z,58.22
2018-09-26T02:11:10.672Z,58.23
2018-09-26T02:12:10.657Z,58.01
2018-09-26T02:13:10.671Z,58.16
2018-09-26T02:14:10.497Z,58.2
2018-09-26T02:15:10.640Z,58.5
2018-09-26T02:16:10.505Z,58.58
2018-09-26T02:17:10.590Z,58.5
2018-09-26T02:18:10.662Z,58.61
2018-09-26T02:19:10.634Z,58.27
2018-09-26T02:20:10.654Z,57.99
2018-09-26T02:21:11.060Z,58.38
2018-09-26T02:22:10.663Z,58.31
2018-09-26T02:23:10.473Z,58.03
2018-09-26T02:24:10.870Z,58.63
2018-09-26T02:25:10.684Z,58.74
2018-09-26T02:26:10.679Z,58.32
2018-09-26T02:27:10.575Z,58.55
2018-09-26T02:28:10.701Z,58.39
2018-09-26T02:29:10.576Z,58.4
2018-09-26T02:30:10.630Z,58.44
2018-09-26T02:31:10.590Z,58.21
2018-09-26T02:32:10.798Z,58.37
2018-09-26T02:33:10.650Z,58.58
2018-09-26T02:34:10.858Z,58.3
2018-09-26T02:35:10.591Z,58.4
2018-09-26T02:36:10.642Z,58.32
2018-09-26T02:37:10.783Z,58.64
2018-09-26T02:38:10.672Z,58.21
2018-09-26T02:39:10.440Z,58.6
2018-09-26T02:40:10.440Z,58.61
2018-09-26T02:41:10.519Z,58.37
2018-09-26T02:42:10.589Z,58.81
2018-09-26T02:43:10.609Z,59
2018-09-26T02:44:10.767Z,58.61
2018-09-26T02:45:10.722Z,58.91
2018-09-26T02:46:10.685Z,59.23
2018-09-26T02:47:10.701Z,58.76
2018-09-26T02:48:10.690Z,58.78
2018-09-26T02:49:10.579Z,59.33
2018-09-26T02:50:11.043Z,58.97
2018-09-26T02:51:10.550Z,59.03
2018-09-26T02:52:10.700Z,58.74
2018-09-26T02:53:10.621Z,58.87
2018-09-26T02:54:10.613Z,59.03
2018-09-26T02:55:10.672Z,58.85
2018-09-26T02:56:10.476Z,59.01
2018-09-26T02:57:10.574Z,59.18
2018-09-26T02:58:10.592Z,59.04
2018-09-26T02:59:10.443Z,59.09
2018-09-26T03:00:10.695Z,59.17
2018-09-26T03:01:10.627Z,59.25
2018-09-26T03:02:10.645Z,58.89
2018-09-26T03:03:10.608Z,59.18
2018-09-26T03:04:10.637Z,59.15
2018-09-26T03:05:10.464Z,59.16
2018-09-26T03:06:10.488Z,59.14
2018-09-26T03:07:10.577Z,59.14
2018-09-26T03:08:10.648Z,59.06
2018-09-26T03:09:10.575Z,59.32
2018-09-26T03:10:10.574Z,59.04
2018-09-26T03:11:10.528Z,59.34
2018-09-26T03:12:10.536Z,59.3
2018-09-26T03:13:10.430Z,59.29
2018-09-26T03:14:10.737Z,59.53
2018-09-26T03:15:10.489Z,59.46
2018-09-26T03:16:10.593Z,59.86
2018-09-26T03:17:10.949Z,59.32
2018-09-26T03:18:11.219Z,59.37
2018-09-26T03:19:10.521Z,59.22
2018-09-26T03:20:10.500Z,59.68
2018-09-26T03:21:10.693Z,59.72
2018-09-26T03:22:10.540Z,59.56
2018-09-26T03:23:10.712Z,59.55
2018-09-26T03:24:10.571Z,59.83
2018-09-26T03:25:10.378Z,59.61
2018-09-26T03:26:10.635Z,59.48
2018-09-26T03:27:10.562Z,59.26
2018-09-26T03:28:10.541Z,59.45
2018-09-26T03:29:10.578Z,59.58
2018-09-26T03:30:10.727Z,59.52
2018-09-26T03:31:10.528Z,59.55
2018-09-26T03:32:10.555Z,59.71
2018-09-26T03:33:10.357Z,60.09
2018-09-26T03:34:10.837Z,59.97
2018-09-26T03:35:10.371Z,59.73
2018-09-26T03:36:10.580Z,59.67
2018-09-26T03:37:10.564Z,59.68
2018-09-26T03:38:10.404Z,59.69
2018-09-26T03:39:10.398Z,59.71
2018-09-26T03:40:10.537Z,59.78
2018-09-26T03:41:10.355Z,60.08
2018-09-26T03:42:10.355Z,59.94
2018-09-26T03:43:10.363Z,60.38
2018-09-26T03:44:10.511Z,60.18
2018-09-26T03:45:10.607Z,60.24
2018-09-26T03:46:10.946Z,60.09
2018-09-26T03:47:10.355Z,59.82
2018-09-26T03:48:10.682Z,60.04
2018-09-26T03:49:10.457Z,60.41
2018-09-26T03:50:10.501Z,60.05
2018-09-26T03:51:10.537Z,59.8
2018-09-26T03:52:10.497Z,60
2018-09-26T03:53:10.436Z,60.38
2018-09-26T03:54:10.461Z,60.64
2018-09-26T03:55:10.903Z,60.38
2018-09-26T03:56:10.506Z,60.56
2018-09-26T03:57:10.566Z,60.38
2018-09-26T03:58:10.539Z,60.71
2018-09-26T03:59:10.566Z,60.07
2018-09-26T04:00:10.654Z,60.18
2018-09-26T04:01:10.618Z,60.2
2018-09-26T04:02:10.342Z,60.19
2018-09-26T04:03:10.378Z,60.23
2018-09-26T04:04:10.500Z,59.91
2018-09-26T04:05:10.445Z,60.03
2018-09-26T04:06:10.455Z,60.27
2018-09-26T04:07:10.470Z,60.42
2018-09-26T04:08:10.376Z,59.83
2018-09-26T04:09:10.526Z,59.68
2018-09-26T04:10:10.552Z,59.92
2018-09-26T04:11:10.536Z,59.58
2018-09-26T04:12:10.576Z,59.77
2018-09-26T04:13:10.936Z,59.48
2018-09-26T04:14:10.548Z,59.38
2018-09-26T04:15:11.179Z,59.59
2018-09-26T04:16:10.531Z,59.76
2018-09-26T04:17:10.390Z,59.66
2018-09-26T04:18:10.547Z,59.44
2018-09-26T04:19:10.475Z,59.19
2018-09-26T04:20:10.628Z,59.41
2018-09-26T04:21:10.358Z,59.22
2018-09-26T04:22:10.592Z,59.7
2018-09-26T04:23:10.508Z,59.18
2018-09-26T04:24:10.441Z,59.08
2018-09-26T04:25:10.598Z,59.05
2018-09-26T04:26:10.848Z,59.11
2018-09-26T04:27:11.009Z,59.25
2018-09-26T04:28:10.412Z,59.17
2018-09-26T04:29:10.536Z,58.87
2018-09-26T04:30:10.450Z,59
2018-09-26T04:31:10.408Z,59.11
2018-09-26T04:32:10.522Z,59.03
2018-09-26T04:33:11.672Z,58.9
2018-09-26T04:34:10.455Z,59.17
2018-09-26T04:35:10.677Z,58.75
2018-09-26T04:36:10.761Z,58.99
2018-09-26T04:37:10.316Z,58.91
2018-09-26T04:38:10.498Z,59.08
2018-09-26T04:39:10.566Z,59.15
2018-09-26T04:40:10.425Z,59.01
2018-09-26T04:41:10.311Z,58.87
2018-09-26T04:42:10.555Z,58.86
2018-09-26T04:43:10.621Z,59.16
2018-09-26T04:44:10.302Z,58.96
2018-09-26T04:45:10.272Z,59.02
2018-09-26T04:46:10.407Z,59.29
2018-09-26T04:47:10.269Z,58.98
2018-09-26T04:48:10.409Z,59.27
2018-09-26T04:49:10.240Z,59.6
2018-09-26T04:50:10.422Z,59.73
2018-09-26T04:51:10.329Z,59.69
2018-09-26T04:52:10.242Z,59.67
2018-09-26T04:53:10.284Z,59.27
2018-09-26T04:54:10.485Z,59.56
2018-09-26T04:55:10.402Z,59.72
2018-09-26T04:56:10.682Z,59.56
2018-09-26T04:57:10.405Z,59.67
2018-09-26T04:58:10.651Z,59.6
2018-09-26T04:59:10.371Z,59.8
2018-09-26T05:00:10.392Z,59.82
2018-09-26T05:01:10.415Z,59.93
2018-09-26T05:02:10.246Z,59.78
2018-09-26T05:03:10.254Z,60
2018-09-26T05:04:10.234Z,59.77
2018-09-26T05:05:10.268Z,60.04
2018-09-26T05:06:10.575Z,60.32
2018-09-26T05:07:10.461Z,59.97
2018-09-26T05:08:10.718Z,60.32
2018-09-26T05:09:10.475Z,60.36
2018-09-26T05:10:10.401Z,60.2
2018-09-26T05:11:10.705Z,59.99
2018-09-26T05:12:10.425Z,60.2
2018-09-26T05:13:10.559Z,60.36
2018-09-26T05:14:10.433Z,60.33
2018-09-26T05:15:10.418Z,60.39
2018-09-26T05:16:10.481Z,60.53
2018-09-26T05:17:10.282Z,60.54
2018-09-26T05:18:10.347Z,60.24
2018-09-26T05:19:10.394Z,60.49
2018-09-26T05:20:10.327Z,60.32
2018-09-26T05:21:10.592Z,60.54
2018-09-26T05:22:10.393Z,60.6
2018-09-26T05:23:10.720Z,60.57
2018-09-26T05:24:10.386Z,60.44
2018-09-26T05:25:10.608Z,60.58
2018-09-26T05:26:10.511Z,60.28
2018-09-26T05:27:10.379Z,60.69
2018-09-26T05:28:10.209Z,60.49
2018-09-26T05:29:10.302Z,60.77
2018-09-26T05:30:10.475Z,60.57
2018-09-26T05:31:10.455Z,60.75
2018-09-26T05:32:10.553Z,60.5
2018-09-26T05:33:10.420Z,60.74
2018-09-26T05:34:10.366Z,60.41
2018-09-26T05:35:10.512Z,60.32
2018-09-26T05:36:10.352Z,60.93
2018-09-26T05:37:10.746Z,60.91
2018-09-26T05:38:10.187Z,60.62
2018-09-26T05:39:10.204Z,60.82
2018-09-26T05:40:10.811Z,61.07
2018-09-26T05:41:10.194Z,60.94
2018-09-26T05:42:10.329Z,60.71
2018-09-26T05:43:10.439Z,60.53
2018-09-26T05:44:10.446Z,60.29
2018-09-26T05:45:10.391Z,60.27
2018-09-26T05:46:10.499Z,60.4
2018-09-26T05:47:10.448Z,60.38
2018-09-26T05:48:10.441Z,60.34
2018-09-26T05:49:10.442Z,60.15
2018-09-26T05:50:10.373Z,60.22
2018-09-26T05:51:10.456Z,59.79
2018-09-26T05:52:10.180Z,60.09
2018-09-26T05:53:10.300Z,60.02
2018-09-26T05:54:10.490Z,60.11
2018-09-26T05:55:10.319Z,60.06
2018-09-26T05:56:10.606Z,60.31
2018-09-26T05:57:10.362Z,60.09
2018-09-26T05:58:10.198Z,60.34
2018-09-26T05:59:10.134Z,60.1
2018-09-26T06:00:10.458Z,60.39
2018-09-26T06:01:10.262Z,60.18
2018-09-26T06:02:10.331Z,59.87
2018-09-26T06:03:10.376Z,60.04
2018-09-26T06:04:10.242Z,60.41
2018-09-26T06:05:10.175Z,60.14
2018-09-26T06:06:10.294Z,59.9
2018-09-26T06:07:10.139Z,59.84
2018-09-26T06:08:10.347Z,59.92
2018-09-26T06:09:10.349Z,59.59
2018-09-26T06:10:10.492Z,59.68
2018-09-26T06:11:10.381Z,59.67
2018-09-26T06:12:10.306Z,59.85
2018-09-26T06:13:10.273Z,59.97
2018-09-26T06:14:10.326Z,59.83
2018-09-26T06:15:10.292Z,59.84
2018-09-26T06:16:10.155Z,60.07
2018-09-26T06:17:10.134Z,59.77
2018-09-26T06:18:10.279Z,59.48
2018-09-26T06:19:10.314Z,59.74
2018-09-26T06:20:10.325Z,59.8
2018-09-26T06:21:10.264Z,59.7
2018-09-26T06:22:10.292Z,59.38
2018-09-26T06:23:10.133Z,59.68
2018-09-26T06:24:10.289Z,59.23
2018-09-26T06:25:10.288Z,59.67
2018-09-26T06:26:10.398Z,59.45
2018-09-26T06:27:10.098Z,59.47
2018-09-26T06:28:11.649Z,59.55
2018-09-26T06:29:10.145Z,59.79
2018-09-26T06:30:10.089Z,59.94
2018-09-26T06:31:10.292Z,59.58
2018-09-26T06:32:10.129Z,59.82
2018-09-26T06:33:10.140Z,59.67
2018-09-26T06:34:10.377Z,59.57
2018-09-26T06:35:10.271Z,59.47
2018-09-26T06:36:10.165Z,59.67
2018-09-26T06:37:10.123Z,59.52
2018-09-26T06:38:10.176Z,59.55
2018-09-26T06:39:10.274Z,59.46
2018-09-26T06:40:10.237Z,59.57
2018-09-26T06:41:10.056Z,59.54
2018-09-26T06:42:10.263Z,58.97
2018-09-26T06:43:10.277Z,59.03
2018-09-26T06:44:10.114Z,59.28
2018-09-26T06:45:10.369Z,59.53
2018-09-26T06:46:10.278Z,59.13
2018-09-26T06:47:10.075Z,59.04
2018-09-26T06:48:10.405Z,59.53
2018-09-26T06:49:10.226Z,59.3
2018-09-26T06:50:10.216Z,59.39
2018-09-26T06:51:10.148Z,59.36
2018-09-26T06:52:10.321Z,59.38
2018-09-26T06:53:10.153Z,59.04
2018-09-26T06:54:10.711Z,59.14
2018-09-26T06:55:10.569Z,59.14
2018-09-26T06:56:10.721Z,58.78
2018-09-26T06:57:10.237Z,58.79
2018-09-26T06:58:10.269Z,58.68
2018-09-26T06:59:11.108Z,58.32
2018-09-26T07:00:10.285Z,58.57
2018-09-26T07:01:10.214Z,58.38
2018-09-26T07:02:10.070Z,58.1
2018-09-26T07:03:10.481Z,58.49
2018-09-26T07:04:10.152Z,58.53
2018-09-26T07:05:10.190Z,58.43
2018-09-26T07:06:10.607Z,57.93
2018-09-26T07:07:10.261Z,57.87
2018-09-26T07:08:10.090Z,58.12
2018-09-26T07:09:10.052Z,58.12
2018-09-26T07:10:10.121Z,57.92
2018-09-26T07:11:10.225Z,58.24
2018-09-26T07:12:10.489Z,58.16
2018-09-26T07:13:10.151Z,58.21
2018-09-26T07:14:10.247Z,57.76
2018-09-26T07:15:10.286Z,57.81
2018-09-26T07:16:10.210Z,57.85
2018-09-26T07:17:10.076Z,57.23
2018-09-26T07:18:10.138Z,57.13
2018-09-26T07:19:10.226Z,56.95
2018-09-26T07:20:10.034Z,57.2
2018-09-26T07:21:10.322Z,57.03
2018-09-26T07:22:10.347Z,56.78
2018-09-26T07:23:10.198Z,56.62
2018-09-26T07:24:10.261Z,56.7
2018-09-26T07:25:10.082Z,56.49
2018-09-26T07:26:10.188Z,56.73
2018-09-26T07:27:10.289Z,56.91
2018-09-26T07:28:10.281Z,56.75
2018-09-26T07:29:10.190Z,56.83
2018-09-26T07:30:10.186Z,56.25
2018-09-26T07:31:10.214Z,55.79
2018-09-26T07:32:10.361Z,56.17
2018-09-26T07:33:10.199Z,56.39
2018-09-26T07:34:10.032Z,55.58
2018-09-26T07:35:10.177Z,55.87
2018-09-26T07:36:10.184Z,56.37
2018-09-26T07:37:10.470Z,56.22
2018-09-26T07:38:10.025Z,56.54
2018-09-26T07:39:10.203Z,56.13
2018-09-26T07:40:10.048Z,56.38
2018-09-26T07:41:10.156Z,55.87
2018-09-26T07:42:10.008Z,55.57
2018-09-26T07:43:10.169Z,55.83
2018-09-26T07:44:10.204Z,55.75
2018-09-26T07:45:10.213Z,55.81
2018-09-26T07:46:10.027Z,55.8
2018-09-26T07:47:10.157Z,55.78
2018-09-26T07:48:10.190Z,55.95
2018-09-26T07:49:10.238Z,56.47
2018-09-26T07:50:10.180Z,56.09
2018-09-26T07:51:10.151Z,56.27
2018-09-26T07:52:10.011Z,55.96
2018-09-26T07:53:10.693Z,56.05
2018-09-26T07:54:10.209Z,55.66
2018-09-26T07:55:10.343Z,56.02
2018-09-26T07:56:10.360Z,55.84
2018-09-26T07:57:10.050Z,55.86
2018-09-26T07:58:10.216Z,56.13
2018-09-26T07:59:11.440Z,55.61
2018-09-26T08:00:10.086Z,56.07
2018-09-26T08:01:10.290Z,55.93
2018-09-26T08:02:10.254Z,55.58
2018-09-26T08:03:10.295Z,55.48
2018-09-26T08:04:10.308Z,55.33
2018-09-26T08:05:10.123Z,55.71
2018-09-26T08:06:10.149Z,55.35
2018-09-26T08:07:10.324Z,55.29
2018-09-26T08:08:10.350Z,55.2
2018-09-26T08:09:10.340Z,55.82
2018-09-26T08:10:10.291Z,56.24
2018-09-26T08:11:10.422Z,55.47
2018-09-26T08:12:10.191Z,55.18
2018-09-26T08:13:09.987Z,55.43
2018-09-26T08:14:10.037Z,55.4
2018-09-26T08:15:10.115Z,54.93
2018-09-26T08:16:10.192Z,54.04
2018-09-26T08:17:10.041Z,54.55
2018-09-26T08:18:10.481Z,54.79
2018-09-26T08:19:10.147Z,54.3
2018-09-26T08:20:10.210Z,54.53
2018-09-26T08:21:10.191Z,53.73
2018-09-26T08:22:10.199Z,54.13
2018-09-26T08:23:10.038Z,54.15
2018-09-26T08:24:11.224Z,53.45
2018-09-26T08:25:09.989Z,53.61
2018-09-26T08:26:10.085Z,53.28
2018-09-26T08:27:10.027Z,53.66
2018-09-26T08:28:10.383Z,53.75
2018-09-26T08:29:10.114Z,54.26
2018-09-26T08:30:11.388Z,54.26
2018-09-26T08:31:10.099Z,54.87
2018-09-26T08:32:10.010Z,54.72
2018-09-26T08:33:10.187Z,53.47
2018-09-26T08:34:10.245Z,53.2
2018-09-26T08:35:10.330Z,52.84
2018-09-26T08:36:10.201Z,53.14
2018-09-26T08:37:10.150Z,52.81
2018-09-26T08:38:10.146Z,52.61
2018-09-26T08:39:10.037Z,53.19
2018-09-26T08:40:10.160Z,52.79
2018-09-26T08:41:10.026Z,53.38
2018-09-26T08:42:10.177Z,52.68
2018-09-26T08:43:10.103Z,52.67
2018-09-26T08:44:10.148Z,52.21
2018-09-26T08:45:10.099Z,52.54
2018-09-26T08:46:10.020Z,52.64
2018-09-26T08:47:10.026Z,52.05
2018-09-26T08:48:10.200Z,52.47
2018-09-26T08:49:10.229Z,52.57
2018-09-26T08:50:09.890Z,52.14
2018-09-26T08:51:10.089Z,51.48
2018-09-26T08:52:10.076Z,51.22
2018-09-26T08:53:10.264Z,51.38
2018-09-26T08:54:10.110Z,51.64
2018-09-26T08:55:10.055Z,51.53
2018-09-26T08:56:10.067Z,51.49
2018-09-26T08:57:10.263Z,51.53
2018-09-26T08:58:10.001Z,51.06
2018-09-26T08:59:10.075Z,51.05
2018-09-26T09:00:10.125Z,51.37
2018-09-26T09:01:09.875Z,51.16
2018-09-26T09:02:09.907Z,51.1
2018-09-26T09:03:10.057Z,51.88
2018-09-26T09:04:09.914Z,51.38
2018-09-26T09:05:09.977Z,51.3
2018-09-26T09:06:10.170Z,50.8
2018-09-26T09:07:09.879Z,50.21
2018-09-26T09:08:09.913Z,50.91
2018-09-26T09:09:10.058Z,51.23
2018-09-26T09:10:09.986Z,51.08
2018-09-26T09:11:10.067Z,49.99
2018-09-26T09:12:10.268Z,51.02
2018-09-26T09:13:10.574Z,50.86
2018-09-26T09:14:10.325Z,50.68
2018-09-26T09:15:10.294Z,50.33
2018-09-26T09:16:10.730Z,50.32
2018-09-26T09:17:10.205Z,48.72
2018-09-26T09:18:10.307Z,49.6
2018-09-26T09:19:11.349Z,49.51
2018-09-26T09:20:10.450Z,49.79
2018-09-26T09:21:10.324Z,49.81
2018-09-26T09:22:10.333Z,49.83
2018-09-26T09:23:10.148Z,50.12
2018-09-26T09:24:10.260Z,49.95
2018-09-26T09:25:10.258Z,49.78
2018-09-26T09:26:10.525Z,49.28
2018-09-26T09:27:10.485Z,49.21
2018-09-26T09:28:10.170Z,49.17
2018-09-26T09:29:10.297Z,49.5
2018-09-26T09:30:10.286Z,48.11
2018-09-26T09:31:09.990Z,49.2
2018-09-26T09:32:10.614Z,49.33
2018-09-26T09:33:10.213Z,49.23
2018-09-26T09:34:10.529Z,48.83
2018-09-26T09:35:09.862Z,48.4
2018-09-26T09:36:10.218Z,48.15
2018-09-26T09:37:10.121Z,47.66
2018-09-26T09:38:10.194Z,48.06
2018-09-26T09:39:10.039Z,48.03
2018-09-26T09:40:10.171Z,48.83
2018-09-26T09:41:10.273Z,49.97
2018-09-26T09:42:11.209Z,49.96
2018-09-26T09:43:10.268Z,48.35
2018-09-26T09:44:10.643Z,48.07
2018-09-26T09:45:10.208Z,48.48
2018-09-26T09:46:09.988Z,48.69
2018-09-26T09:47:09.986Z,49.31
2018-09-26T09:48:10.201Z,48.64
2018-09-26T09:49:09.994Z,48.16
2018-09-26T09:50:10.266Z,47.96
2018-09-26T09:51:10.237Z,49.02
2018-09-26T09:52:10.085Z,49.39
2018-09-26T09:53:09.816Z,48.4
2018-09-26T09:54:10.140Z,48.23
2018-09-26T09:55:10.136Z,48.54
2018-09-26T09:56:10.283Z,48.38
2018-09-26T09:57:10.270Z,48.25
2018-09-26T09:58:10.288Z,49.09
2018-09-26T09:59:10.179Z,48.44
2018-09-26T10:00:10.916Z,49.2
2018-09-26T10:01:09.985Z,48.86
2018-09-26T10:02:10.278Z,48.74
2018-09-26T10:03:10.745Z,48.97
2018-09-26T10:04:10.143Z,48.23
2018-09-26T10:05:09.966Z,46.97
2018-09-26T10:06:10.015Z,47.47
2018-09-26T10:07:10.064Z,46.68
2018-09-26T10:08:10.432Z,47.48
2018-09-26T10:09:10.259Z,47.41
2018-09-26T10:10:10.286Z,47.61
2018-09-26T10:11:09.956Z,47.34
2018-09-26T10:12:12.319Z,46.61
2018-09-26T10:13:10.057Z,46.27
2018-09-26T10:14:10.560Z,45.74
2018-09-26T10:15:10.188Z,45.95
2018-09-26T10:16:10.216Z,45.29
2018-09-26T10:17:09.785Z,44.97
2018-09-26T10:18:10.238Z,45.79
2018-09-26T10:19:09.838Z,46.38
2018-09-26T10:20:10.025Z,47.61
2018-09-26T10:21:09.976Z,47.08
2018-09-26T10:22:09.950Z,46.01
2018-09-26T10:23:10.176Z,45.47
2018-09-26T10:24:10.246Z,45.65
2018-09-26T10:25:10.544Z,45.19
2018-09-26T10:26:10.340Z,45.7
2018-09-26T10:27:10.227Z,46.65
2018-09-26T10:28:09.975Z,46.08
2018-09-26T10:29:09.907Z,45.4
2018-09-26T10:30:09.982Z,44.81
2018-09-26T10:31:09.987Z,45.33
2018-09-26T10:32:10.044Z,46.32
2018-09-26T10:33:10.227Z,45.41
2018-09-26T10:34:10.019Z,46.08
2018-09-26T10:35:10.054Z,45.75
2018-09-26T10:36:09.819Z,45.26
2018-09-26T10:37:10.170Z,45.22
2018-09-26T10:38:10.237Z,45.53
2018-09-26T10:39:10.149Z,44.32
2018-09-26T10:40:10.635Z,44.48
2018-09-26T10:41:09.781Z,45
2018-09-26T10:42:10.024Z,45.34
2018-09-26T10:43:10.060Z,45.02
2018-09-26T10:44:09.851Z,44.22
2018-09-26T10:45:10.288Z,44.5
2018-09-26T10:46:09.977Z,44.69
2018-09-26T10:47:09.894Z,44.89
2018-09-26T10:48:10.206Z,45.45
2018-09-26T10:49:10.085Z,44.91
2018-09-26T10:50:10.205Z,45.73
2018-09-26T10:51:10.450Z,44.99
2018-09-26T10:52:10.035Z,43.93
2018-09-26T10:53:09.743Z,43.95
2018-09-26T10:54:09.986Z,44.05
2018-09-26T10:55:09.808Z,44.89
2018-09-26T10:56:10.087Z,43.38
2018-09-26T10:57:10.091Z,43.83
2018-09-26T10:58:09.991Z,44.27
2018-09-26T10:59:10.029Z,44.29
2018-09-26T11:00:10.186Z,44.29
2018-09-26T11:01:09.913Z,44.58
2018-09-26T11:02:10.803Z,44.6
2018-09-26T11:03:10.225Z,43.68
2018-09-26T11:04:10.184Z,44.63
2018-09-26T11:05:09.874Z,44.32
2018-09-26T11:06:09.836Z,44.92
2018-09-26T11:07:09.707Z,44.94
2018-09-26T11:08:10.363Z,44.3
2018-09-26T11:09:10.253Z,44.47
2018-09-26T11:10:10.130Z,44.13
2018-09-26T11:11:09.951Z,42.87
2018-09-26T11:12:10.170Z,41.99
2018-09-26T11:13:10.002Z,43.12
2018-09-26T11:14:10.064Z,42.63
2018-09-26T11:15:10.146Z,41.49
2018-09-26T11:16:10.186Z,43.03
2018-09-26T11:17:09.997Z,43.56
2018-09-26T11:18:09.798Z,43.4
2018-09-26T11:19:09.915Z,42.17
2018-09-26T11:20:09.968Z,41.77
2018-09-26T11:21:10.056Z,41.35
2018-09-26T11:22:10.245Z,41.17
2018-09-26T11:23:09.715Z,41.25
2018-09-26T11:24:09.845Z,42.08
2018-09-26T11:25:09.945Z,43
2018-09-26T11:26:10.249Z,42.39
2018-09-26T11:27:10.377Z,42.34
2018-09-26T11:28:10.254Z,42.43
2018-09-26T11:29:09.860Z,42.21
2018-09-26T11:30:10.187Z,41.26
2018-09-26T11:31:09.896Z,41.98
2018-09-26T11:32:10.182Z,42.37
2018-09-26T11:33:10.133Z,42
2018-09-26T11:34:09.971Z,41.86
2018-09-26T11:35:09.750Z,41.15
2018-09-26T11:36:09.949Z,41.06
2018-09-26T11:37:10.167Z,41.53
2018-09-26T11:38:10.119Z,40.81
2018-09-26T11:39:10.010Z,40.63
2018-09-26T11:40:10.011Z,40.75
2018-09-26T11:41:09.761Z,40.69
2018-09-26T11:42:09.685Z,40.67
2018-09-26T11:43:10.187Z,41.63
2018-09-26T11:44:10.064Z,41.48
2018-09-26T11:45:09.953Z,41
2018-09-26T11:46:09.929Z,41.04
2018-09-26T11:47:09.958Z,40.01
2018-09-26T11:48:09.683Z,40.06
2018-09-26T11:49:09.838Z,39.62
2018-09-26T11:50:10.249Z,40.06
2018-09-26T11:51:09.837Z,39.98
2018-09-26T11:52:10.055Z,40.78
2018-09-26T11:53:09.804Z,42.35
2018-09-26T11:54:10.284Z,41.72
2018-09-26T11:55:09.860Z,40.39
2018-09-26T11:56:10.033Z,41.91
2018-09-26T11:57:09.967Z,41.58
2018-09-26T11:58:09.915Z,42.07
2018-09-26T11:59:09.921Z,42.34
2018-09-26T12:00:09.786Z,42.15
2018-09-26T12:01:09.793Z,40.74
2018-09-26T12:02:10.115Z,39.38
2018-09-26T12:03:10.133Z,39.17
2018-09-26T12:04:10.037Z,39.83
2018-09-26T12:05:10.141Z,40.21
2018-09-26T12:06:09.946Z,39.66
2018-09-26T12:08:10.080Z,40.5
2018-09-26T12:09:09.828Z,41.17
2018-09-26T12:10:10.294Z,40.88
2018-09-26T12:11:09.914Z,40.29
2018-09-26T12:12:09.948Z,41.29
2018-09-26T12:13:10.135Z,40.99
2018-09-26T12:14:09.893Z,40.61
2018-09-26T12:15:09.992Z,41.36
2018-09-26T12:16:09.833Z,41.01
2018-09-26T12:17:09.685Z,40.31
2018-09-26T12:18:09.835Z,39.73
2018-09-26T12:19:10.159Z,40.62
2018-09-26T12:20:09.923Z,40.46
2018-09-26T12:21:09.708Z,41.45
2018-09-26T12:22:10.273Z,40.21
2018-09-26T12:23:09.730Z,40.53
2018-09-26T12:24:09.871Z,40.62
2018-09-26T12:25:10.013Z,40.69
2018-09-26T12:26:10.078Z,39.68
2018-09-26T12:27:10.071Z,40.2
2018-09-26T12:28:10.818Z,40.12
2018-09-26T12:29:09.770Z,40.47
2018-09-26T12:30:10.063Z,40.22
2018-09-26T12:31:09.864Z,40.32
2018-09-26T12:32:09.916Z,40.17
2018-09-26T12:33:09.950Z,39.72
2018-09-26T12:34:10.442Z,39.59
2018-09-26T12:35:09.762Z,40.45
2018-09-26T12:36:09.828Z,39.64
2018-09-26T12:37:09.578Z,39.04
2018-09-26T12:38:09.751Z,39.24
2018-09-26T12:39:09.626Z,39.81
2018-09-26T12:40:10.325Z,39.03
2018-09-26T12:41:09.842Z,39.21
2018-09-26T12:42:10.142Z,38.91
2018-09-26T12:43:12.256Z,39.36
2018-09-26T12:44:09.760Z,40.32
2018-09-26T12:45:09.900Z,39.12
2018-09-26T12:46:09.932Z,39.04
2018-09-26T12:47:09.933Z,39.07
2018-09-26T12:48:10.168Z,39.01
2018-09-26T12:49:09.603Z,39.29
2018-09-26T12:50:09.605Z,39.42
2018-09-26T12:51:09.754Z,38.99
2018-09-26T12:52:10.452Z,39.39
2018-09-26T12:53:09.772Z,39.36
2018-09-26T12:54:10.955Z,38.88
2018-09-26T12:55:10.058Z,39.14
2018-09-26T12:56:10.109Z,38.55